sensor_id;sensor_type;location;lat;lon;timestamp;temperature;humidity
5675;DHT22;2860;54.284;10.158;2022-10-18T00:02:04;12.40;99.90
5675;DHT22;2860;54.284;10.158;2022-10-18T00:04:30;12.40;99.90
5675;DHT22;2860;54.284;10.158;2022-10-18T00:06:56;12.40;99.90
5675;DHT22;2860;54.284;10.158;2022-10-18T00:09:21;12.40;99.90
5675;DHT22;2860;54.284;10.158;2022-10-18T00:11:47;12.30;99.90
5675;DHT22;2860;54.284;10.158;2022-10-18T00:14:12;12.30;99.90
5675;DHT22;2860;54.284;10.158;2022-10-18T00:16:38;12.30;99.90
5675;DHT22;2860;54.284;10.158;2022-10-18T00:19:03;12.20;99.90
5675;DHT22;2860;54.284;10.158;2022-10-18T00:21:29;12.20;99.90
5675;DHT22;2860;54.284;10.158;2022-10-18T00:23:54;12.30;99.90
5675;DHT22;2860;54.284;10.158;2022-10-18T00:26:22;12.30;99.90
5675;DHT22;2860;54.284;10.158;2022-10-18T00:28:57;12.30;99.90
5675;DHT22;2860;54.284;10.158;2022-10-18T00:31:24;12.40;99.90
5675;DHT22;2860;54.284;10.158;2022-10-18T00:33:52;12.40;99.90
5675;DHT22;2860;54.284;10.158;2022-10-18T00:36:18;12.50;99.90
5675;DHT22;2860;54.284;10.158;2022-10-18T00:38:43;12.50;99.90
5675;DHT22;2860;54.284;10.158;2022-10-18T00:41:11;12.60;99.90
5675;DHT22;2860;54.284;10.158;2022-10-18T00:46:27;12.70;99.90
5675;DHT22;2860;54.284;10.158;2022-10-18T00:48:55;12.70;99.90
5675;DHT22;2860;54.284;10.158;2022-10-18T00:51:22;12.80;99.90
5675;DHT22;2860;54.284;10.158;2022-10-18T00:53:49;12.80;99.90
5675;DHT22;2860;54.284;10.158;2022-10-18T00:56:16;12.80;99.90
5675;DHT22;2860;54.284;10.158;2022-10-18T00:58:42;12.80;99.90
5675;DHT22;2860;54.284;10.158;2022-10-18T01:01:08;12.90;99.90
5675;DHT22;2860;54.284;10.158;2022-10-18T01:03:35;12.90;99.90
5675;DHT22;2860;54.284;10.158;2022-10-18T01:06:01;13.00;99.90
5675;DHT22;2860;54.284;10.158;2022-10-18T01:11:36;13.00;99.90
5675;DHT22;2860;54.284;10.158;2022-10-18T01:19:49;13.00;99.90
5675;DHT22;2860;54.284;10.158;2022-10-18T01:22:26;13.00;99.90
5675;DHT22;2860;54.284;10.158;2022-10-18T01:25:15;13.10;99.90
5675;DHT22;2860;54.284;10.158;2022-10-18T01:35:41;13.10;99.90
5675;DHT22;2860;54.284;10.158;2022-10-18T01:38:11;13.10;99.90
5675;DHT22;2860;54.284;10.158;2022-10-18T01:40:40;13.10;99.90
5675;DHT22;2860;54.284;10.158;2022-10-18T01:43:08;13.10;99.90
5675;DHT22;2860;54.284;10.158;2022-10-18T01:45:33;13.10;99.90
5675;DHT22;2860;54.284;10.158;2022-10-18T01:47:59;13.10;99.90
5675;DHT22;2860;54.284;10.158;2022-10-18T01:50:30;13.00;99.90
5675;DHT22;2860;54.284;10.158;2022-10-18T01:52:56;13.00;99.90
5675;DHT22;2860;54.284;10.158;2022-10-18T01:55:37;13.00;99.90
5675;DHT22;2860;54.284;10.158;2022-10-18T01:58:19;13.00;99.90
5675;DHT22;2860;54.284;10.158;2022-10-18T02:00:48;13.00;99.90
5675;DHT22;2860;54.284;10.158;2022-10-18T02:03:22;13.00;99.90
5675;DHT22;2860;54.284;10.158;2022-10-18T02:06:05;13.00;99.90
5675;DHT22;2860;54.284;10.158;2022-10-18T02:11:14;12.90;99.90
5675;DHT22;2860;54.284;10.158;2022-10-18T02:13:47;12.80;99.90
5675;DHT22;2860;54.284;10.158;2022-10-18T02:16:24;12.70;99.90
5675;DHT22;2860;54.284;10.158;2022-10-18T02:18:57;12.60;99.90
5675;DHT22;2860;54.284;10.158;2022-10-18T02:21:27;12.50;99.90
5675;DHT22;2860;54.284;10.158;2022-10-18T02:23:53;12.50;99.90
5675;DHT22;2860;54.284;10.158;2022-10-18T02:26:19;12.60;99.90
5675;DHT22;2860;54.284;10.158;2022-10-18T02:28:45;12.60;99.90
5675;DHT22;2860;54.284;10.158;2022-10-18T02:31:30;12.60;99.90
5675;DHT22;2860;54.284;10.158;2022-10-18T02:34:15;12.70;99.90
5675;DHT22;2860;54.284;10.158;2022-10-18T02:36:44;12.70;99.90
5675;DHT22;2860;54.284;10.158;2022-10-18T02:39:15;12.70;99.90
5675;DHT22;2860;54.284;10.158;2022-10-18T02:41:42;12.70;99.90
5675;DHT22;2860;54.284;10.158;2022-10-18T02:44:08;12.80;99.90
5675;DHT22;2860;54.284;10.158;2022-10-18T02:46:34;12.80;99.90
5675;DHT22;2860;54.284;10.158;2022-10-18T02:48:59;12.80;99.90
5675;DHT22;2860;54.284;10.158;2022-10-18T02:51:25;12.80;99.90
5675;DHT22;2860;54.284;10.158;2022-10-18T02:53:50;12.80;99.90
5675;DHT22;2860;54.284;10.158;2022-10-18T02:56:16;12.80;99.90
5675;DHT22;2860;54.284;10.158;2022-10-18T02:58:41;12.80;99.90
5675;DHT22;2860;54.284;10.158;2022-10-18T03:01:07;12.80;99.90
5675;DHT22;2860;54.284;10.158;2022-10-18T03:03:32;12.80;99.90
5675;DHT22;2860;54.284;10.158;2022-10-18T03:05:58;12.80;99.90
5675;DHT22;2860;54.284;10.158;2022-10-18T03:08:24;12.80;99.90
5675;DHT22;2860;54.284;10.158;2022-10-18T03:10:49;12.80;99.90
5675;DHT22;2860;54.284;10.158;2022-10-18T03:13:15;12.80;99.90
5675;DHT22;2860;54.284;10.158;2022-10-18T03:15:40;12.80;99.90
5675;DHT22;2860;54.284;10.158;2022-10-18T03:18:06;12.80;99.90
5675;DHT22;2860;54.284;10.158;2022-10-18T03:20:32;12.80;99.90
5675;DHT22;2860;54.284;10.158;2022-10-18T03:22:58;12.80;99.90
5675;DHT22;2860;54.284;10.158;2022-10-18T03:25:23;12.80;99.90
5675;DHT22;2860;54.284;10.158;2022-10-18T03:27:49;12.80;99.90
5675;DHT22;2860;54.284;10.158;2022-10-18T03:30:14;12.80;99.90
5675;DHT22;2860;54.284;10.158;2022-10-18T03:32:40;12.80;99.90
5675;DHT22;2860;54.284;10.158;2022-10-18T03:35:07;12.70;99.90
5675;DHT22;2860;54.284;10.158;2022-10-18T03:37:34;12.80;99.90
5675;DHT22;2860;54.284;10.158;2022-10-18T03:39:59;12.70;99.90
5675;DHT22;2860;54.284;10.158;2022-10-18T03:42:25;12.70;99.90
5675;DHT22;2860;54.284;10.158;2022-10-18T03:44:50;12.70;99.90
5675;DHT22;2860;54.284;10.158;2022-10-18T03:47:16;12.70;99.90
5675;DHT22;2860;54.284;10.158;2022-10-18T03:49:41;12.60;99.90
5675;DHT22;2860;54.284;10.158;2022-10-18T03:52:07;12.70;99.90
5675;DHT22;2860;54.284;10.158;2022-10-18T03:54:32;12.70;99.90
5675;DHT22;2860;54.284;10.158;2022-10-18T03:56:58;12.70;99.90
5675;DHT22;2860;54.284;10.158;2022-10-18T03:59:23;12.70;99.90
5675;DHT22;2860;54.284;10.158;2022-10-18T04:01:49;12.70;99.90
5675;DHT22;2860;54.284;10.158;2022-10-18T04:04:15;12.70;99.90
5675;DHT22;2860;54.284;10.158;2022-10-18T04:06:40;12.70;99.90
5675;DHT22;2860;54.284;10.158;2022-10-18T04:09:06;12.70;99.90
5675;DHT22;2860;54.284;10.158;2022-10-18T04:11:32;12.70;99.90
5675;DHT22;2860;54.284;10.158;2022-10-18T04:13:57;12.70;99.90
5675;DHT22;2860;54.284;10.158;2022-10-18T04:16:23;12.60;99.90
5675;DHT22;2860;54.284;10.158;2022-10-18T04:18:49;12.60;99.90
5675;DHT22;2860;54.284;10.158;2022-10-18T04:21:14;12.60;99.90
5675;DHT22;2860;54.284;10.158;2022-10-18T04:23:40;12.50;99.90
5675;DHT22;2860;54.284;10.158;2022-10-18T04:26:05;12.50;99.90
5675;DHT22;2860;54.284;10.158;2022-10-18T04:28:32;12.40;99.90
5675;DHT22;2860;54.284;10.158;2022-10-18T04:30:58;12.30;99.90
5675;DHT22;2860;54.284;10.158;2022-10-18T04:33:23;12.20;99.90
5675;DHT22;2860;54.284;10.158;2022-10-18T04:35:51;12.10;99.90
5675;DHT22;2860;54.284;10.158;2022-10-18T04:38:18;12.00;99.90
5675;DHT22;2860;54.284;10.158;2022-10-18T04:40:44;11.90;99.90
5675;DHT22;2860;54.284;10.158;2022-10-18T04:43:09;11.90;99.90
5675;DHT22;2860;54.284;10.158;2022-10-18T04:45:35;11.70;99.90
5675;DHT22;2860;54.284;10.158;2022-10-18T04:48:00;11.70;99.90
5675;DHT22;2860;54.284;10.158;2022-10-18T04:50:26;11.60;99.90
5675;DHT22;2860;54.284;10.158;2022-10-18T04:52:52;11.50;99.90
5675;DHT22;2860;54.284;10.158;2022-10-18T04:55:18;11.50;99.90
5675;DHT22;2860;54.284;10.158;2022-10-18T04:57:44;11.40;99.90
5675;DHT22;2860;54.284;10.158;2022-10-18T05:00:10;11.30;99.90
5675;DHT22;2860;54.284;10.158;2022-10-18T05:02:35;11.30;99.90
5675;DHT22;2860;54.284;10.158;2022-10-18T05:05:01;11.20;99.90
5675;DHT22;2860;54.284;10.158;2022-10-18T05:07:26;11.10;99.90
5675;DHT22;2860;54.284;10.158;2022-10-18T05:09:52;11.10;99.90
5675;DHT22;2860;54.284;10.158;2022-10-18T05:12:17;11.10;99.90
5675;DHT22;2860;54.284;10.158;2022-10-18T05:14:43;11.10;99.90
5675;DHT22;2860;54.284;10.158;2022-10-18T05:17:08;11.10;99.90
5675;DHT22;2860;54.284;10.158;2022-10-18T05:19:34;11.10;99.90
5675;DHT22;2860;54.284;10.158;2022-10-18T05:21:59;11.10;99.90
5675;DHT22;2860;54.284;10.158;2022-10-18T05:24:25;11.20;99.90
5675;DHT22;2860;54.284;10.158;2022-10-18T05:26:50;11.20;99.90
5675;DHT22;2860;54.284;10.158;2022-10-18T05:29:16;11.30;99.90
5675;DHT22;2860;54.284;10.158;2022-10-18T05:31:41;11.30;99.90
5675;DHT22;2860;54.284;10.158;2022-10-18T05:34:07;11.30;99.90
5675;DHT22;2860;54.284;10.158;2022-10-18T05:36:32;11.30;99.90
5675;DHT22;2860;54.284;10.158;2022-10-18T05:38:58;11.30;99.90
5675;DHT22;2860;54.284;10.158;2022-10-18T05:41:23;11.30;99.90
5675;DHT22;2860;54.284;10.158;2022-10-18T05:43:49;11.30;99.90
5675;DHT22;2860;54.284;10.158;2022-10-18T05:46:15;11.30;99.90
5675;DHT22;2860;54.284;10.158;2022-10-18T05:48:41;11.30;99.90
5675;DHT22;2860;54.284;10.158;2022-10-18T05:51:07;11.20;99.90
5675;DHT22;2860;54.284;10.158;2022-10-18T05:53:32;11.20;99.90
5675;DHT22;2860;54.284;10.158;2022-10-18T05:56:01;11.10;99.90
5675;DHT22;2860;54.284;10.158;2022-10-18T05:58:27;11.10;99.90
5675;DHT22;2860;54.284;10.158;2022-10-18T06:00:52;11.00;99.90
5675;DHT22;2860;54.284;10.158;2022-10-18T06:03:18;11.00;99.90
5675;DHT22;2860;54.284;10.158;2022-10-18T06:05:43;11.00;99.90
5675;DHT22;2860;54.284;10.158;2022-10-18T06:08:09;10.90;99.90
5675;DHT22;2860;54.284;10.158;2022-10-18T06:10:38;10.90;99.90
5675;DHT22;2860;54.284;10.158;2022-10-18T06:13:04;10.90;99.90
5675;DHT22;2860;54.284;10.158;2022-10-18T06:15:29;10.80;99.90
5675;DHT22;2860;54.284;10.158;2022-10-18T06:17:57;10.80;99.90
5675;DHT22;2860;54.284;10.158;2022-10-18T06:20:23;10.80;99.90
5675;DHT22;2860;54.284;10.158;2022-10-18T06:22:51;10.90;99.90
5675;DHT22;2860;54.284;10.158;2022-10-18T06:25:17;11.00;99.90
5675;DHT22;2860;54.284;10.158;2022-10-18T06:27:43;11.10;99.90
5675;DHT22;2860;54.284;10.158;2022-10-18T06:30:09;11.20;99.90
5675;DHT22;2860;54.284;10.158;2022-10-18T06:32:34;11.30;99.90
5675;DHT22;2860;54.284;10.158;2022-10-18T06:35:00;11.30;99.90
5675;DHT22;2860;54.284;10.158;2022-10-18T06:37:28;11.40;99.90
5675;DHT22;2860;54.284;10.158;2022-10-18T06:39:53;11.40;99.90
5675;DHT22;2860;54.284;10.158;2022-10-18T06:42:19;11.50;99.90
5675;DHT22;2860;54.284;10.158;2022-10-18T06:44:44;11.50;99.90
5675;DHT22;2860;54.284;10.158;2022-10-18T06:47:10;11.50;99.90
5675;DHT22;2860;54.284;10.158;2022-10-18T06:49:35;11.50;99.90
5675;DHT22;2860;54.284;10.158;2022-10-18T06:52:01;11.60;99.90
5675;DHT22;2860;54.284;10.158;2022-10-18T06:54:27;11.70;99.90
5675;DHT22;2860;54.284;10.158;2022-10-18T06:56:55;11.70;99.90
5675;DHT22;2860;54.284;10.158;2022-10-18T06:59:21;11.70;99.90
5675;DHT22;2860;54.284;10.158;2022-10-18T07:01:46;11.80;99.90
5675;DHT22;2860;54.284;10.158;2022-10-18T07:04:12;11.80;99.90
5675;DHT22;2860;54.284;10.158;2022-10-18T07:06:37;11.80;99.90
5675;DHT22;2860;54.284;10.158;2022-10-18T07:09:03;11.90;99.90
5675;DHT22;2860;54.284;10.158;2022-10-18T07:11:29;11.90;99.90
5675;DHT22;2860;54.284;10.158;2022-10-18T07:13:59;12.00;99.90
5675;DHT22;2860;54.284;10.158;2022-10-18T07:16:29;12.00;99.90
5675;DHT22;2860;54.284;10.158;2022-10-18T07:18:55;12.00;99.90
5675;DHT22;2860;54.284;10.158;2022-10-18T07:21:23;12.00;99.90
5675;DHT22;2860;54.284;10.158;2022-10-18T07:23:49;12.10;99.90
5675;DHT22;2860;54.284;10.158;2022-10-18T07:26:18;12.10;99.90
5675;DHT22;2860;54.284;10.158;2022-10-18T07:28:45;12.20;99.90
5675;DHT22;2860;54.284;10.158;2022-10-18T07:31:12;12.20;99.90
5675;DHT22;2860;54.284;10.158;2022-10-18T07:33:37;12.20;99.90
5675;DHT22;2860;54.284;10.158;2022-10-18T07:36:05;12.30;99.90
5675;DHT22;2860;54.284;10.158;2022-10-18T07:38:32;12.30;99.90
5675;DHT22;2860;54.284;10.158;2022-10-18T07:40:58;12.30;99.90
5675;DHT22;2860;54.284;10.158;2022-10-18T07:43:24;12.30;99.90
5675;DHT22;2860;54.284;10.158;2022-10-18T07:45:58;12.40;99.90
5675;DHT22;2860;54.284;10.158;2022-10-18T07:48:24;12.50;99.90
5675;DHT22;2860;54.284;10.158;2022-10-18T07:50:50;12.50;99.90
5675;DHT22;2860;54.284;10.158;2022-10-18T07:53:16;12.60;99.90
5675;DHT22;2860;54.284;10.158;2022-10-18T07:55:41;12.70;99.90
5675;DHT22;2860;54.284;10.158;2022-10-18T07:58:09;12.70;99.90
5675;DHT22;2860;54.284;10.158;2022-10-18T08:00:35;12.70;99.90
5675;DHT22;2860;54.284;10.158;2022-10-18T08:03:00;12.70;99.90
5675;DHT22;2860;54.284;10.158;2022-10-18T08:05:26;12.70;99.90
5675;DHT22;2860;54.284;10.158;2022-10-18T08:07:53;12.80;99.90
5675;DHT22;2860;54.284;10.158;2022-10-18T08:10:19;12.80;99.90
5675;DHT22;2860;54.284;10.158;2022-10-18T08:12:45;12.70;99.90
5675;DHT22;2860;54.284;10.158;2022-10-18T08:15:10;12.70;99.90
5675;DHT22;2860;54.284;10.158;2022-10-18T08:17:36;12.70;99.90
5675;DHT22;2860;54.284;10.158;2022-10-18T08:20:02;12.70;99.90
5675;DHT22;2860;54.284;10.158;2022-10-18T08:22:28;12.60;99.90
5675;DHT22;2860;54.284;10.158;2022-10-18T08:24:53;12.60;99.90
5675;DHT22;2860;54.284;10.158;2022-10-18T08:27:19;12.60;99.90
5675;DHT22;2860;54.284;10.158;2022-10-18T08:29:44;12.60;99.90
5675;DHT22;2860;54.284;10.158;2022-10-18T08:32:10;12.60;99.90
5675;DHT22;2860;54.284;10.158;2022-10-18T08:34:36;12.60;99.90
5675;DHT22;2860;54.284;10.158;2022-10-18T08:37:02;12.60;99.90
5675;DHT22;2860;54.284;10.158;2022-10-18T08:39:28;12.60;99.90
5675;DHT22;2860;54.284;10.158;2022-10-18T08:44:44;12.60;99.90
5675;DHT22;2860;54.284;10.158;2022-10-18T08:47:21;12.60;99.90
5675;DHT22;2860;54.284;10.158;2022-10-18T08:50:02;12.60;99.90
5675;DHT22;2860;54.284;10.158;2022-10-18T08:57:53;12.70;99.90
5675;DHT22;2860;54.284;10.158;2022-10-18T09:00:23;12.70;99.90
5675;DHT22;2860;54.284;10.158;2022-10-18T09:03:03;12.70;99.90
5675;DHT22;2860;54.284;10.158;2022-10-18T09:05:55;12.80;99.90
5675;DHT22;2860;54.284;10.158;2022-10-18T09:11:23;12.80;99.90
5675;DHT22;2860;54.284;10.158;2022-10-18T09:14:24;12.70;99.90
5675;DHT22;2860;54.284;10.158;2022-10-18T09:20:00;12.50;99.90
5675;DHT22;2860;54.284;10.158;2022-10-18T09:22:53;12.50;99.90
5675;DHT22;2860;54.284;10.158;2022-10-18T09:25:30;12.40;99.90
5675;DHT22;2860;54.284;10.158;2022-10-18T09:31:06;12.30;99.90
5675;DHT22;2860;54.284;10.158;2022-10-18T09:34:11;12.30;99.90
5675;DHT22;2860;54.284;10.158;2022-10-18T09:36:38;12.30;99.90
5675;DHT22;2860;54.284;10.158;2022-10-18T09:39:15;12.40;99.90
5675;DHT22;2860;54.284;10.158;2022-10-18T09:41:58;12.40;99.90
5675;DHT22;2860;54.284;10.158;2022-10-18T09:44:29;12.60;99.90
5675;DHT22;2860;54.284;10.158;2022-10-18T09:47:07;13.00;99.90
5675;DHT22;2860;54.284;10.158;2022-10-18T09:49:46;13.30;99.90
5675;DHT22;2860;54.284;10.158;2022-10-18T09:52:20;13.50;99.90
5675;DHT22;2860;54.284;10.158;2022-10-18T09:54:54;13.70;99.90
5675;DHT22;2860;54.284;10.158;2022-10-18T09:57:27;13.90;99.90
5675;DHT22;2860;54.284;10.158;2022-10-18T09:59:56;14.20;99.90
5675;DHT22;2860;54.284;10.158;2022-10-18T10:02:22;14.50;99.90
5675;DHT22;2860;54.284;10.158;2022-10-18T10:04:51;14.60;99.90
5675;DHT22;2860;54.284;10.158;2022-10-18T10:07:23;14.60;99.90
5675;DHT22;2860;54.284;10.158;2022-10-18T10:10:27;14.40;99.90
5675;DHT22;2860;54.284;10.158;2022-10-18T10:15:29;14.00;99.90
5675;DHT22;2860;54.284;10.158;2022-10-18T10:18:44;14.00;99.90
5675;DHT22;2860;54.284;10.158;2022-10-18T10:20:53;13.90;99.90
5675;DHT22;2860;54.284;10.158;2022-10-18T10:23:37;14.10;99.90
5675;DHT22;2860;54.284;10.158;2022-10-18T10:26:23;14.10;99.90
5675;DHT22;2860;54.284;10.158;2022-10-18T10:28:49;14.10;99.90
5675;DHT22;2860;54.284;10.158;2022-10-18T10:33:44;14.30;99.90
5675;DHT22;2860;54.284;10.158;2022-10-18T10:36:19;14.30;99.90
5675;DHT22;2860;54.284;10.158;2022-10-18T10:39:01;14.40;99.90
5675;DHT22;2860;54.284;10.158;2022-10-18T10:41:27;14.60;99.90
5675;DHT22;2860;54.284;10.158;2022-10-18T10:43:52;14.80;99.90
5675;DHT22;2860;54.284;10.158;2022-10-18T10:46:18;14.90;99.90
5675;DHT22;2860;54.284;10.158;2022-10-18T10:48:50;15.00;99.90
5675;DHT22;2860;54.284;10.158;2022-10-18T10:51:29;15.10;99.90
5675;DHT22;2860;54.284;10.158;2022-10-18T10:54:13;15.00;99.90
5675;DHT22;2860;54.284;10.158;2022-10-18T10:57:15;14.90;99.90
5675;DHT22;2860;54.284;10.158;2022-10-18T10:59:52;14.70;99.90
5675;DHT22;2860;54.284;10.158;2022-10-18T11:02:19;14.60;99.90
5675;DHT22;2860;54.284;10.158;2022-10-18T11:04:48;14.50;99.90
5675;DHT22;2860;54.284;10.158;2022-10-18T11:07:39;14.60;99.90
5675;DHT22;2860;54.284;10.158;2022-10-18T11:15:44;15.30;99.90
5675;DHT22;2860;54.284;10.158;2022-10-18T11:20:44;15.70;99.90
5675;DHT22;2860;54.284;10.158;2022-10-18T11:23:13;15.80;99.90
5675;DHT22;2860;54.284;10.158;2022-10-18T11:34:27;15.70;99.90
5675;DHT22;2860;54.284;10.158;2022-10-18T11:37:06;15.60;99.90
5675;DHT22;2860;54.284;10.158;2022-10-18T11:44:53;15.60;99.90
5675;DHT22;2860;54.284;10.158;2022-10-18T11:47:28;15.60;99.90
5675;DHT22;2860;54.284;10.158;2022-10-18T11:50:07;15.50;99.90
5675;DHT22;2860;54.284;10.158;2022-10-18T12:06:37;16.00;99.90
5675;DHT22;2860;54.284;10.158;2022-10-18T12:09:21;15.90;99.90
5675;DHT22;2860;54.284;10.158;2022-10-18T12:12:08;15.70;99.90
5675;DHT22;2860;54.284;10.158;2022-10-18T12:14:42;15.30;99.90
5675;DHT22;2860;54.284;10.158;2022-10-18T12:17:18;15.10;99.90
5675;DHT22;2860;54.284;10.158;2022-10-18T12:19:46;14.80;99.90
5675;DHT22;2860;54.284;10.158;2022-10-18T12:22:26;14.70;99.90
5675;DHT22;2860;54.284;10.158;2022-10-18T12:24:53;14.60;99.90
5675;DHT22;2860;54.284;10.158;2022-10-18T12:27:27;14.60;99.90
5675;DHT22;2860;54.284;10.158;2022-10-18T12:30:02;14.50;99.90
5675;DHT22;2860;54.284;10.158;2022-10-18T12:32:33;14.50;99.90
5675;DHT22;2860;54.284;10.158;2022-10-18T12:35:05;14.50;99.90
5675;DHT22;2860;54.284;10.158;2022-10-18T12:40:14;14.40;99.90
5675;DHT22;2860;54.284;10.158;2022-10-18T12:42:44;14.20;99.90
5675;DHT22;2860;54.284;10.158;2022-10-18T12:47:42;14.00;99.90
5675;DHT22;2860;54.284;10.158;2022-10-18T12:53:03;14.10;99.90
5675;DHT22;2860;54.284;10.158;2022-10-18T12:55:32;14.10;99.90
5675;DHT22;2860;54.284;10.158;2022-10-18T12:58:00;14.20;99.90
5675;DHT22;2860;54.284;10.158;2022-10-18T13:08:39;14.50;99.90
5675;DHT22;2860;54.284;10.158;2022-10-18T13:16:29;14.80;99.90
5675;DHT22;2860;54.284;10.158;2022-10-18T13:24:55;14.70;99.90
5675;DHT22;2860;54.284;10.158;2022-10-18T13:30:40;14.30;99.90
5675;DHT22;2860;54.284;10.158;2022-10-18T13:33:31;14.20;99.90
5675;DHT22;2860;54.284;10.158;2022-10-18T13:36:18;14.30;99.90
5675;DHT22;2860;54.284;10.158;2022-10-18T13:38:59;14.50;99.90
5675;DHT22;2860;54.284;10.158;2022-10-18T13:44:29;14.90;99.90
5675;DHT22;2860;54.284;10.158;2022-10-18T13:55:52;14.90;99.90
5675;DHT22;2860;54.284;10.158;2022-10-18T13:58:45;14.70;99.90
5675;DHT22;2860;54.284;10.158;2022-10-18T14:01:36;14.60;99.90
5675;DHT22;2860;54.284;10.158;2022-10-18T14:07:05;14.50;99.90
5675;DHT22;2860;54.284;10.158;2022-10-18T14:09:43;14.50;99.90
5675;DHT22;2860;54.284;10.158;2022-10-18T14:12:26;14.50;99.90
5675;DHT22;2860;54.284;10.158;2022-10-18T14:14:58;14.50;99.90
5675;DHT22;2860;54.284;10.158;2022-10-18T14:17:38;14.50;99.90
5675;DHT22;2860;54.284;10.158;2022-10-18T14:20:25;14.40;99.90
5675;DHT22;2860;54.284;10.158;2022-10-18T14:23:14;14.40;99.90
5675;DHT22;2860;54.284;10.158;2022-10-18T14:25:41;14.40;99.90
5675;DHT22;2860;54.284;10.158;2022-10-18T14:28:17;14.40;99.90
5675;DHT22;2860;54.284;10.158;2022-10-18T14:30:57;14.30;99.90
5675;DHT22;2860;54.284;10.158;2022-10-18T14:36:06;14.30;99.90
5675;DHT22;2860;54.284;10.158;2022-10-18T14:38:33;14.20;99.90
5675;DHT22;2860;54.284;10.158;2022-10-18T14:41:12;14.10;99.90
5675;DHT22;2860;54.284;10.158;2022-10-18T14:43:39;14.10;99.90
5675;DHT22;2860;54.284;10.158;2022-10-18T14:46:20;14.10;99.90
5675;DHT22;2860;54.284;10.158;2022-10-18T14:48:54;14.10;99.90
5675;DHT22;2860;54.284;10.158;2022-10-18T14:51:20;14.10;99.90
5675;DHT22;2860;54.284;10.158;2022-10-18T14:53:46;14.10;99.90
5675;DHT22;2860;54.284;10.158;2022-10-18T14:56:35;14.00;99.90
5675;DHT22;2860;54.284;10.158;2022-10-18T14:59:04;13.90;99.90
5675;DHT22;2860;54.284;10.158;2022-10-18T15:01:35;13.90;99.90
5675;DHT22;2860;54.284;10.158;2022-10-18T15:04:07;13.80;99.90
5675;DHT22;2860;54.284;10.158;2022-10-18T15:06:33;13.80;99.90
5675;DHT22;2860;54.284;10.158;2022-10-18T15:09:01;13.80;99.90
5675;DHT22;2860;54.284;10.158;2022-10-18T15:11:28;13.80;99.90
5675;DHT22;2860;54.284;10.158;2022-10-18T15:14:00;13.80;99.90
5675;DHT22;2860;54.284;10.158;2022-10-18T15:16:36;13.80;99.90
5675;DHT22;2860;54.284;10.158;2022-10-18T15:21:58;13.70;99.90
5675;DHT22;2860;54.284;10.158;2022-10-18T15:24:28;13.70;99.90
5675;DHT22;2860;54.284;10.158;2022-10-18T15:26:57;13.70;99.90
5675;DHT22;2860;54.284;10.158;2022-10-18T15:29:24;13.70;99.90
5675;DHT22;2860;54.284;10.158;2022-10-18T15:31:50;13.60;99.90
5675;DHT22;2860;54.284;10.158;2022-10-18T15:34:25;13.60;99.90
5675;DHT22;2860;54.284;10.158;2022-10-18T15:36:53;13.50;99.90
5675;DHT22;2860;54.284;10.158;2022-10-18T15:39:21;13.50;99.90
5675;DHT22;2860;54.284;10.158;2022-10-18T15:41:53;13.40;99.90
5675;DHT22;2860;54.284;10.158;2022-10-18T15:44:28;13.30;99.90
5675;DHT22;2860;54.284;10.158;2022-10-18T15:54:53;13.20;99.90
5675;DHT22;2860;54.284;10.158;2022-10-18T15:57:18;13.20;99.90
5675;DHT22;2860;54.284;10.158;2022-10-18T15:59:54;13.10;99.90
5675;DHT22;2860;54.284;10.158;2022-10-18T16:02:22;13.10;99.90
5675;DHT22;2860;54.284;10.158;2022-10-18T16:04:48;13.10;99.90
5675;DHT22;2860;54.284;10.158;2022-10-18T16:07:13;13.10;99.90
5675;DHT22;2860;54.284;10.158;2022-10-18T16:09:39;13.00;99.90
5675;DHT22;2860;54.284;10.158;2022-10-18T16:12:05;13.00;99.90
5675;DHT22;2860;54.284;10.158;2022-10-18T16:14:31;13.00;99.90
5675;DHT22;2860;54.284;10.158;2022-10-18T16:17:02;12.90;99.90
5675;DHT22;2860;54.284;10.158;2022-10-18T16:19:28;12.90;99.90
5675;DHT22;2860;54.284;10.158;2022-10-18T16:21:54;12.80;99.90
5675;DHT22;2860;54.284;10.158;2022-10-18T16:24:20;12.80;99.90
5675;DHT22;2860;54.284;10.158;2022-10-18T16:26:47;12.80;99.90
5675;DHT22;2860;54.284;10.158;2022-10-18T16:29:14;12.70;99.90
5675;DHT22;2860;54.284;10.158;2022-10-18T16:31:40;12.70;99.90
5675;DHT22;2860;54.284;10.158;2022-10-18T16:34:06;12.80;99.90
5675;DHT22;2860;54.284;10.158;2022-10-18T16:36:35;12.80;99.90
5675;DHT22;2860;54.284;10.158;2022-10-18T16:39:04;12.70;99.90
5675;DHT22;2860;54.284;10.158;2022-10-18T16:41:32;12.70;99.90
5675;DHT22;2860;54.284;10.158;2022-10-18T16:43:58;12.70;99.90
5675;DHT22;2860;54.284;10.158;2022-10-18T16:46:29;12.60;99.90
5675;DHT22;2860;54.284;10.158;2022-10-18T16:48:56;12.60;99.90
5675;DHT22;2860;54.284;10.158;2022-10-18T16:51:22;12.60;99.90
5675;DHT22;2860;54.284;10.158;2022-10-18T16:53:48;12.60;99.90
5675;DHT22;2860;54.284;10.158;2022-10-18T16:56:15;12.60;99.90
5675;DHT22;2860;54.284;10.158;2022-10-18T16:58:42;12.60;99.90
5675;DHT22;2860;54.284;10.158;2022-10-18T17:01:10;12.70;99.90
5675;DHT22;2860;54.284;10.158;2022-10-18T17:03:37;12.60;99.90
5675;DHT22;2860;54.284;10.158;2022-10-18T17:06:02;12.60;99.90
5675;DHT22;2860;54.284;10.158;2022-10-18T17:08:28;12.60;99.90
5675;DHT22;2860;54.284;10.158;2022-10-18T17:10:55;12.60;99.90
5675;DHT22;2860;54.284;10.158;2022-10-18T17:13:22;12.60;99.90
5675;DHT22;2860;54.284;10.158;2022-10-18T17:15:48;12.60;99.90
5675;DHT22;2860;54.284;10.158;2022-10-18T17:18:19;12.60;99.90
5675;DHT22;2860;54.284;10.158;2022-10-18T17:20:46;12.60;99.90
5675;DHT22;2860;54.284;10.158;2022-10-18T17:23:12;12.50;99.90
5675;DHT22;2860;54.284;10.158;2022-10-18T17:25:38;12.50;99.90
5675;DHT22;2860;54.284;10.158;2022-10-18T17:28:05;12.40;99.90
5675;DHT22;2860;54.284;10.158;2022-10-18T17:30:32;12.40;99.90
5675;DHT22;2860;54.284;10.158;2022-10-18T17:32:57;12.30;99.90
5675;DHT22;2860;54.284;10.158;2022-10-18T17:35:23;12.30;99.90
5675;DHT22;2860;54.284;10.158;2022-10-18T17:37:49;12.20;99.90
5675;DHT22;2860;54.284;10.158;2022-10-18T17:40:16;12.10;99.90
5675;DHT22;2860;54.284;10.158;2022-10-18T17:42:42;12.10;99.90
5675;DHT22;2860;54.284;10.158;2022-10-18T17:45:08;12.10;99.90
5675;DHT22;2860;54.284;10.158;2022-10-18T17:47:33;12.10;99.90
5675;DHT22;2860;54.284;10.158;2022-10-18T17:49:59;12.00;99.90
5675;DHT22;2860;54.284;10.158;2022-10-18T17:52:24;12.00;99.90
5675;DHT22;2860;54.284;10.158;2022-10-18T17:54:50;12.00;99.90
5675;DHT22;2860;54.284;10.158;2022-10-18T17:57:15;12.00;99.90
5675;DHT22;2860;54.284;10.158;2022-10-18T17:59:41;11.90;99.90
5675;DHT22;2860;54.284;10.158;2022-10-18T18:02:09;11.90;99.90
5675;DHT22;2860;54.284;10.158;2022-10-18T18:04:35;11.80;99.90
5675;DHT22;2860;54.284;10.158;2022-10-18T18:07:00;11.80;99.90
5675;DHT22;2860;54.284;10.158;2022-10-18T18:09:28;11.80;99.90
5675;DHT22;2860;54.284;10.158;2022-10-18T18:11:54;11.70;99.90
5675;DHT22;2860;54.284;10.158;2022-10-18T18:14:20;11.70;99.90
5675;DHT22;2860;54.284;10.158;2022-10-18T18:16:46;11.70;99.90
5675;DHT22;2860;54.284;10.158;2022-10-18T18:19:12;11.60;99.90